• Join FlightAware (Why Join?)
  • Login
  • US Flag 
04:00PM EDT


 

Airport Tracker/Info


-or-


 

Live Flight TrackerFlight Track Log ✈ VH-REJ ✈ 30-Apr-2013 ✈ YPJT / JAD - YPJT / JAD

Flight Track Log - Related Links

Times and Time Zones

All times are in EDT time to prevent confusion due to time zone crossing. See the VH-REJ flight status page for this flight to view local times or setup timezone preferences in your user account.

Time Position Orientation Groundspeed Altitude Reporting Facility
EDT Latitude Longitude Course Direction KTS MPH feet Rate Location/Type
09:15PM -32.0914 115.8937 71° East 67 77 500  Level Aus ATC (RADAR)
09:16PM -32.0866 115.9102 71° East 69 79 900 420 Climbing Aus ATC (RADAR)
09:16PM -32.0959 115.9230 131° Southeast 77 89 1,100 120 Climbing Aus ATC (RADAR)
09:18PM -32.1241 115.9598 132° Southeast 110 127 1,200 60 Climbing Aus ATC (RADAR)
09:18PM -32.1282 115.9672 123° Southeast 108 124 1,200 300 Level Aus ATC (RADAR)
09:19PM -32.1386 115.9877 121° Southeast 96 110 1,500 360 Climbing Aus ATC (RADAR)
09:19PM -32.1472 116.0043 122° Southeast 95 109 1,700 420 Climbing Aus ATC (RADAR)
09:20PM -32.1539 116.0320 106° East 88 101 2,200 420 Climbing Aus ATC (RADAR)
09:21PM -32.1564 116.0494 100° East 89 102 2,400 180 Climbing Aus ATC (RADAR)
09:22PM -32.1577 116.0791 93° East 103 119 2,500 60 Climbing Aus ATC (RADAR)
09:23PM -32.1560 116.1351 88° East 112 129 2,600  Climbing Aus ATC (RADAR)
09:24PM -32.1478 116.1424 37° Northeast 110 127 2,500  Descending Aus ATC (RADAR)
09:24PM -32.1332 116.1529 31° Northeast 105 121 2,600  Climbing Aus ATC (RADAR)
09:25PM -32.1097 116.1685 29° Northeast 105 121 2,500 -120 Descending Aus ATC (RADAR)
09:26PM -32.0926 116.1800 30° Northeast 105 121 2,500  Level Aus ATC (RADAR)
09:27PM -32.0678 116.1989 33° Northeast 109 125 2,500  Level Aus ATC (RADAR)
09:28PM -32.0439 116.2143 29° Northeast 107 123 2,500  Level Aus ATC (RADAR)
09:28PM -32.0281 116.2224 24° Northeast 106 122 2,500  Level Aus ATC (RADAR)
09:29PM -32.0190 116.2265 21° North 105 121 2,500  Level Aus ATC (RADAR)
09:29PM -32.0030 116.2337 21° North 105 121 2,500  Level Aus ATC (RADAR)
09:30PM -31.9855 116.2494 37° Northeast 104 120 2,500  Level Aus ATC (RADAR)
09:30PM -31.9720 116.2618 38° Northeast 104 120 2,500 300 Level Aus ATC (RADAR)
09:31PM -31.9531 116.2791 38° Northeast 84 97 3,000 480 Climbing Aus ATC (RADAR)
09:32PM -31.9433 116.2877 37° Northeast 76 87 3,300 360 Climbing Aus ATC (RADAR)
09:33PM -31.9273 116.3012 36° Northeast 78 90 3,600 300 Climbing Aus ATC (RADAR)
09:35PM -31.8664 116.3677 360° North 3,500 -60 Descending Aus ATC (Calculated)
09:36PM -31.8664 116.3677 188° South 3,500  Level Aus ATC (Calculated)
09:36PM -31.8664 116.3677 280° West 3,500  Level Aus ATC (Calculated)
09:37PM -31.8603 116.3260 280° West  Level FlightAware Approximate
09:38PM -31.8609 116.3302 280° West  Level FlightAware Approximate
09:39PM -31.8736 116.3063 44° Northeast  Level Estimated
09:40PM -31.8076 116.4318 43° Northeast  Level FlightAware Approximate
09:41PM -31.7900 116.4509 43° Northeast  Level FlightAware Approximate
09:42PM -31.7724 116.4700 43° Northeast  Level FlightAware Approximate
09:42PM -31.6833 116.5667 220° Southwest 3,500  Level Aus ATC (Calculated)
09:44PM -31.7064 116.5436 220° Southwest  Level FlightAware Approximate
09:45PM -31.6882 116.5618 40° Northeast  Level FlightAware Approximate
09:45PM -31.6257 116.6845 244° Southwest 4,500  Level Aus ATC (Calculated)
09:46PM -31.6699 116.5801 40° Northeast  Level FlightAware Approximate
09:47PM -31.6510 116.6419 60° Northeast  Level Estimated
09:48PM -31.6374 116.6649 55° Northeast  Level FlightAware Approximate
09:49PM -31.6237 116.6880 55° Northeast  Level FlightAware Approximate
09:50PM -31.6374 116.6649 235° Southwest  Level FlightAware Approximate
09:51PM -31.6237 116.6880 55° Northeast  Level FlightAware Approximate
09:52PM -31.6120 116.6854 North  Level FlightAware Approximate
09:53PM -31.5881 116.6868 North  Level FlightAware Approximate
09:54PM -31.5642 116.6882 North  Level FlightAware Approximate
09:55PM -31.5403 116.6896 North  Level FlightAware Approximate
09:56PM -31.5165 116.6910 North  Level FlightAware Approximate
09:57PM -31.4926 116.6924 North  Level FlightAware Approximate
09:58PM -31.4687 116.6938 North  Level FlightAware Approximate
09:59PM -31.4448 116.6952 North  Level FlightAware Approximate
10:00PM -31.4209 116.6966 North  Level FlightAware Approximate
10:01PM -31.3970 116.6981 North  Level FlightAware Approximate
10:02PM -31.3731 116.6995 North  Level FlightAware Approximate
10:03PM -31.3492 116.7009 North  Level FlightAware Approximate
10:04PM -31.3253 116.7023 North  Level FlightAware Approximate
10:05PM -31.3015 116.7037 North  Level FlightAware Approximate
10:06PM -31.2776 116.7051 North  Level FlightAware Approximate
10:07PM -31.2537 116.7065 North  Level FlightAware Approximate
10:08PM -31.2298 116.7079 North  Level FlightAware Approximate
10:09PM -31.2059 116.7093 North  Level FlightAware Approximate
10:10PM -31.1820 116.7107 North  Level FlightAware Approximate
10:11PM -31.1581 116.7121 North  Level FlightAware Approximate
10:12PM -31.1342 116.7135 North  Level FlightAware Approximate
10:13PM -31.1103 116.7149 North  Level FlightAware Approximate
10:14PM -31.0864 116.7163 North  Level FlightAware Approximate
10:15PM -31.0625 116.7177 North  Level FlightAware Approximate
10:16PM -31.0387 116.7191 North  Level FlightAware Approximate
10:17PM -31.0148 116.7205 North  Level FlightAware Approximate
10:18PM -30.9909 116.7219 North  Level FlightAware Approximate
10:19PM -30.9670 116.7233 North  Level FlightAware Approximate
10:20PM -30.9431 116.7246 North  Level FlightAware Approximate
10:21PM -30.9192 116.7261 North  Level FlightAware Approximate
10:22PM -30.8953 116.7274 North  Level FlightAware Approximate
10:23PM -30.8879 116.7243 204° Southwest  Level FlightAware Approximate
10:24PM -30.9098 116.7131 204° Southwest  Level FlightAware Approximate
10:25PM -30.9317 116.7018 204° Southwest  Level FlightAware Approximate
10:26PM -30.9536 116.6906 204° Southwest  Level FlightAware Approximate
10:27PM -30.9755 116.6794 204° Southwest  Level FlightAware Approximate
10:28PM -30.9974 116.6681 204° Southwest  Level FlightAware Approximate
10:29PM -31.0193 116.6569 204° Southwest  Level FlightAware Approximate
10:30PM -31.0412 116.6456 204° Southwest  Level FlightAware Approximate
10:31PM -31.0631 116.6344 204° Southwest  Level FlightAware Approximate
10:32PM -31.0850 116.6231 204° Southwest  Level FlightAware Approximate
10:33PM -31.1069 116.6119 204° Southwest  Level FlightAware Approximate
10:34PM -31.1288 116.6006 204° Southwest  Level FlightAware Approximate
10:35PM -31.1507 116.5893 204° Southwest  Level FlightAware Approximate
10:36PM -31.1726 116.5780 204° Southwest  Level FlightAware Approximate
10:36PM -31.0664 116.7174 207° Southwest 4,500  Level Aus ATC (Calculated)
10:38PM -31.1031 116.6959 207° Southwest  Level FlightAware Approximate
10:39PM -31.1245 116.6833 207° Southwest  Level FlightAware Approximate
10:40PM -31.1459 116.6708 207° Southwest  Level FlightAware Approximate
10:41PM -31.1672 116.6582 207° Southwest  Level FlightAware Approximate
10:42PM -31.1886 116.6456 207° Southwest  Level FlightAware Approximate
10:43PM -31.2100 116.6331 207° Southwest  Level FlightAware Approximate
10:44PM -31.2313 116.6205 207° Southwest  Level FlightAware Approximate
10:45PM -31.2527 116.6079 207° Southwest  Level FlightAware Approximate
10:46PM -31.2741 116.5953 207° Southwest  Level FlightAware Approximate
10:47PM -31.2955 116.5827 207° Southwest  Level FlightAware Approximate
10:48PM -31.3168 116.5701 207° Southwest  Level FlightAware Approximate
10:48PM -30.8800 116.7283 204° Southwest 4,500  Level Aus ATC (Calculated)
10:50PM -30.9231 116.7062 204° Southwest  Level FlightAware Approximate
10:50PM -30.8800 116.7283 360° North 3,100  Level Aus ATC (Calculated)
10:50PM -30.8800 116.7283 204° Southwest 3,100  Level Aus ATC (Calculated)
10:51PM -30.9450 116.6950 204° Southwest  Level FlightAware Approximate
10:52PM -30.9070 116.7145 204° Southwest  Level FlightAware Approximate
10:53PM -30.9289 116.7032 204° Southwest  Level FlightAware Approximate
10:54PM -30.9508 116.6920 204° Southwest  Level FlightAware Approximate
10:55PM -30.9727 116.6808 204° Southwest  Level FlightAware Approximate
10:56PM -30.9946 116.6695 204° Southwest  Level FlightAware Approximate
10:57PM -31.0165 116.6583 204° Southwest  Level FlightAware Approximate
10:58PM -31.0384 116.6471 204° Southwest  Level FlightAware Approximate
10:59PM -31.0603 116.6358 204° Southwest  Level FlightAware Approximate
11:00PM -31.0822 116.6246 204° Southwest  Level FlightAware Approximate
11:01PM -31.1041 116.6133 204° Southwest  Level FlightAware Approximate
11:02PM -31.1260 116.6020 204° Southwest  Level FlightAware Approximate
11:03PM -31.1479 116.5908 204° Southwest  Level FlightAware Approximate
11:04PM -31.1698 116.5795 204° Southwest  Level FlightAware Approximate
11:04PM -31.4653 116.4267 24° Northeast 3,100  Level Aus ATC (Calculated)
11:05PM -31.1916 116.5682 204° Southwest  Level FlightAware Approximate
11:06PM -31.4897 116.4140 204° Southwest  Level FlightAware Approximate
11:06PM -31.5489 116.3833 24° Northeast 3,100  Level Aus ATC (Calculated)
11:07PM -31.5116 116.4026 204° Southwest  Level FlightAware Approximate
11:08PM -31.5729 116.3708 204° Southwest  Level FlightAware Approximate
11:09PM -31.5948 116.3594 204° Southwest  Level FlightAware Approximate
11:10PM -31.6167 116.3480 204° Southwest  Level FlightAware Approximate
11:11PM -31.6385 116.3366 204° Southwest  Level FlightAware Approximate
11:11PM -31.7159 116.2962 360° North 3,100  Level Aus ATC (Calculated)
11:12PM -31.7159 116.2962 204° Southwest 3,100  Level Aus ATC (Calculated)
11:13PM -31.7484 116.2793 204° Southwest  Level FlightAware Approximate
11:14PM -31.7389 116.2843 204° Southwest  Level FlightAware Approximate
11:15PM -31.7607 116.2728 204° Southwest  Level FlightAware Approximate
11:16PM -31.7826 116.2614 204° Southwest  Level FlightAware Approximate
11:17PM -31.8045 116.2500 204° Southwest  Level FlightAware Approximate
11:18PM -31.8208 116.2295 300° West  Level Estimated
11:19PM -31.8403 116.2130 216° Southwest  Level FlightAware Approximate
11:19PM -31.9664 116.1651 224° Southwest 3,100  Level Aus ATC (Calculated)
11:21PM -31.9999 116.1269 224° Southwest  Level FlightAware Approximate
11:22PM -32.0101 116.1014 328° Northwest  Level Estimated
11:23PM -32.0203 116.0758 245° Southwest  Level FlightAware Approximate
11:24PM -32.0304 116.0503 245° Southwest  Level FlightAware Approximate
11:25PM -32.0406 116.0247 245° Southwest  Level FlightAware Approximate
11:26PM -32.0507 115.9992 328° Northwest  Level Estimated
11:26PM -32.2167 116.0333 342° North 1,600  Level Aus ATC (Calculated)
11:27PM -32.0609 115.9736 328° Northwest  Level Estimated
11:28PM -32.1899 115.9990 328° Northwest  Level Estimated
11:29PM -32.1737 115.9783 328° Northwest  Level Estimated
11:29PM -32.1689 115.9339 60° Northeast 100  Level Aus ATC (Calculated)
11:30PM -32.1574 115.9575 328° Northwest  Level Estimated
11:31PM -32.1405 115.9129 328° Northwest  Level Estimated
11:31PM -32.1332 115.9075 213° Southwest 100  Level Aus ATC (Calculated)
11:31PM -32.1332 115.9075 328° Northwest 100  Level Aus ATC (Calculated)
11:32PM -32.1202 115.8979 328° Northwest  Level Estimated
11:33PM -32.0975 115.8812 328° Northwest  Level FlightAware Approximate
11:34PM -32.0975 115.8811 328° Northwest  Level Estimated
11:35PM -32.0975 115.8811 328° Northwest  Level Estimated
11:36PM -32.0975 115.8811 328° Northwest  Level Estimated
11:37PM -32.0975 115.8811 328° Northwest  Level Estimated
11:38PM -32.0975 115.8812 328° Northwest  Level FlightAware Approximate
11:39PM -32.0975 115.8811 328° Northwest  Level Estimated
11:40PM -32.0975 115.8811 328° Northwest  Level Estimated
11:41PM -32.0975 115.8811 328° Northwest  Level Estimated
11:42PM -32.0975 115.8811 328° Northwest  Level Estimated
11:43PM -32.0975 115.8811 328° Northwest  Level Estimated
11:44PM -32.0975 115.8811 328° Northwest  Level Estimated
11:45PM -32.0975 115.8811 328° Northwest  Level Estimated
11:46PM -32.0975 115.8811 328° Northwest  Level Estimated
11:47PM -32.0975 115.8811 328° Northwest  Level Estimated
11:48PM -32.0975 115.8811 328° Northwest  Level Estimated
11:49PM -32.0975 115.8811 328° Northwest  Level Estimated